sensor_id;sensor_type;location;lat;lon;timestamp;temperature;humidity
11152;DHT22;5630;49.342;10.802;2023-06-26T00:00:12;19.60;99.90
11152;DHT22;5630;49.342;10.802;2023-06-26T00:02:38;19.50;99.90
11152;DHT22;5630;49.342;10.802;2023-06-26T00:05:04;19.40;99.90
11152;DHT22;5630;49.342;10.802;2023-06-26T00:07:30;19.40;99.90
11152;DHT22;5630;49.342;10.802;2023-06-26T00:09:57;19.30;99.90
11152;DHT22;5630;49.342;10.802;2023-06-26T00:12:24;19.20;99.90
11152;DHT22;5630;49.342;10.802;2023-06-26T00:14:49;19.20;99.90
11152;DHT22;5630;49.342;10.802;2023-06-26T00:17:15;19.10;99.90
11152;DHT22;5630;49.342;10.802;2023-06-26T00:19:40;19.10;99.90
11152;DHT22;5630;49.342;10.802;2023-06-26T00:22:06;19.00;99.90
11152;DHT22;5630;49.342;10.802;2023-06-26T00:24:32;18.90;99.90
11152;DHT22;5630;49.342;10.802;2023-06-26T00:26:57;18.90;99.90
11152;DHT22;5630;49.342;10.802;2023-06-26T00:29:24;18.70;99.90
11152;DHT22;5630;49.342;10.802;2023-06-26T00:34:15;18.60;99.90
11152;DHT22;5630;49.342;10.802;2023-06-26T00:36:41;18.50;99.90
11152;DHT22;5630;49.342;10.802;2023-06-26T00:39:10;18.50;99.90
11152;DHT22;5630;49.342;10.802;2023-06-26T00:41:39;18.40;99.90
11152;DHT22;5630;49.342;10.802;2023-06-26T00:44:05;18.40;99.90
11152;DHT22;5630;49.342;10.802;2023-06-26T00:46:31;18.30;99.90
11152;DHT22;5630;49.342;10.802;2023-06-26T00:48:59;18.30;99.90
11152;DHT22;5630;49.342;10.802;2023-06-26T00:51:29;18.30;99.90
11152;DHT22;5630;49.342;10.802;2023-06-26T00:53:55;18.30;99.90
11152;DHT22;5630;49.342;10.802;2023-06-26T00:56:21;18.30;99.90
11152;DHT22;5630;49.342;10.802;2023-06-26T00:58:47;18.30;99.90
11152;DHT22;5630;49.342;10.802;2023-06-26T01:01:13;18.30;99.90
11152;DHT22;5630;49.342;10.802;2023-06-26T01:03:46;18.30;99.90
11152;DHT22;5630;49.342;10.802;2023-06-26T01:06:17;18.30;99.90
11152;DHT22;5630;49.342;10.802;2023-06-26T01:08:44;18.30;99.90
11152;DHT22;5630;49.342;10.802;2023-06-26T01:11:10;18.30;99.90
11152;DHT22;5630;49.342;10.802;2023-06-26T01:13:37;18.30;99.90
11152;DHT22;5630;49.342;10.802;2023-06-26T01:16:04;18.20;99.90
11152;DHT22;5630;49.342;10.802;2023-06-26T01:18:31;18.20;99.90
11152;DHT22;5630;49.342;10.802;2023-06-26T01:20:58;18.20;99.90
11152;DHT22;5630;49.342;10.802;2023-06-26T01:23:35;18.20;99.90
11152;DHT22;5630;49.342;10.802;2023-06-26T01:26:22;18.20;99.90
11152;DHT22;5630;49.342;10.802;2023-06-26T01:28:50;18.20;99.90
11152;DHT22;5630;49.342;10.802;2023-06-26T01:31:17;18.20;99.90
11152;DHT22;5630;49.342;10.802;2023-06-26T01:33:43;18.20;99.90
11152;DHT22;5630;49.342;10.802;2023-06-26T01:36:09;18.20;99.90
11152;DHT22;5630;49.342;10.802;2023-06-26T01:38:35;18.20;99.90
11152;DHT22;5630;49.342;10.802;2023-06-26T01:41:01;18.20;99.90
11152;DHT22;5630;49.342;10.802;2023-06-26T01:46:47;18.10;99.90
11152;DHT22;5630;49.342;10.802;2023-06-26T01:51:46;18.00;99.90
11152;DHT22;5630;49.342;10.802;2023-06-26T01:54:18;17.90;99.90
11152;DHT22;5630;49.342;10.802;2023-06-26T01:56:45;17.80;99.90
11152;DHT22;5630;49.342;10.802;2023-06-26T01:59:14;17.80;99.90
11152;DHT22;5630;49.342;10.802;2023-06-26T02:01:40;17.80;99.90
11152;DHT22;5630;49.342;10.802;2023-06-26T02:04:05;17.80;99.90
11152;DHT22;5630;49.342;10.802;2023-06-26T02:06:31;17.80;99.90
11152;DHT22;5630;49.342;10.802;2023-06-26T02:08:56;17.80;99.90
11152;DHT22;5630;49.342;10.802;2023-06-26T02:11:22;17.70;99.90
11152;DHT22;5630;49.342;10.802;2023-06-26T02:13:48;17.70;99.90
11152;DHT22;5630;49.342;10.802;2023-06-26T02:16:14;17.70;99.90
11152;DHT22;5630;49.342;10.802;2023-06-26T02:21:06;17.60;99.90
11152;DHT22;5630;49.342;10.802;2023-06-26T02:23:32;17.60;99.90
11152;DHT22;5630;49.342;10.802;2023-06-26T02:25:57;17.60;99.90
11152;DHT22;5630;49.342;10.802;2023-06-26T02:28:23;17.50;99.90
11152;DHT22;5630;49.342;10.802;2023-06-26T02:30:48;17.50;99.90
11152;DHT22;5630;49.342;10.802;2023-06-26T02:35:40;17.40;99.90
11152;DHT22;5630;49.342;10.802;2023-06-26T02:38:06;17.40;99.90
11152;DHT22;5630;49.342;10.802;2023-06-26T02:40:31;17.40;99.90
11152;DHT22;5630;49.342;10.802;2023-06-26T02:42:57;17.30;99.90
11152;DHT22;5630;49.342;10.802;2023-06-26T02:45:23;17.30;99.90
11152;DHT22;5630;49.342;10.802;2023-06-26T02:47:49;17.20;99.90
11152;DHT22;5630;49.342;10.802;2023-06-26T02:50:14;17.30;99.90
11152;DHT22;5630;49.342;10.802;2023-06-26T02:52:40;17.20;99.90
11152;DHT22;5630;49.342;10.802;2023-06-26T02:55:06;17.20;99.90
11152;DHT22;5630;49.342;10.802;2023-06-26T02:57:31;17.10;99.90
11152;DHT22;5630;49.342;10.802;2023-06-26T02:59:57;17.10;99.90
11152;DHT22;5630;49.342;10.802;2023-06-26T03:02:22;17.10;99.90
11152;DHT22;5630;49.342;10.802;2023-06-26T03:04:48;17.10;99.90
11152;DHT22;5630;49.342;10.802;2023-06-26T03:07:15;17.00;99.90
11152;DHT22;5630;49.342;10.802;2023-06-26T03:09:41;17.10;99.90
11152;DHT22;5630;49.342;10.802;2023-06-26T03:12:07;17.10;99.90
11152;DHT22;5630;49.342;10.802;2023-06-26T03:14:33;17.10;99.90
11152;DHT22;5630;49.342;10.802;2023-06-26T03:16:58;17.10;99.90
11152;DHT22;5630;49.342;10.802;2023-06-26T03:19:28;17.00;99.90
11152;DHT22;5630;49.342;10.802;2023-06-26T03:21:54;17.00;99.90
11152;DHT22;5630;49.342;10.802;2023-06-26T03:24:20;17.00;99.90
11152;DHT22;5630;49.342;10.802;2023-06-26T03:26:46;17.00;99.90
11152;DHT22;5630;49.342;10.802;2023-06-26T03:29:11;17.00;99.90
11152;DHT22;5630;49.342;10.802;2023-06-26T03:31:37;16.90;99.90
11152;DHT22;5630;49.342;10.802;2023-06-26T03:34:02;16.90;99.90
11152;DHT22;5630;49.342;10.802;2023-06-26T03:36:28;16.90;99.90
11152;DHT22;5630;49.342;10.802;2023-06-26T03:38:53;16.90;99.90
11152;DHT22;5630;49.342;10.802;2023-06-26T03:41:22;16.90;99.90
11152;DHT22;5630;49.342;10.802;2023-06-26T03:43:48;16.90;99.90
11152;DHT22;5630;49.342;10.802;2023-06-26T03:46:14;16.80;99.90
11152;DHT22;5630;49.342;10.802;2023-06-26T03:48:40;16.80;99.90
11152;DHT22;5630;49.342;10.802;2023-06-26T03:51:06;16.80;99.90
11152;DHT22;5630;49.342;10.802;2023-06-26T03:53:32;16.90;99.90
11152;DHT22;5630;49.342;10.802;2023-06-26T03:55:58;16.80;99.90
11152;DHT22;5630;49.342;10.802;2023-06-26T03:58:23;16.90;99.90
11152;DHT22;5630;49.342;10.802;2023-06-26T04:00:50;16.90;99.90
11152;DHT22;5630;49.342;10.802;2023-06-26T04:03:16;16.90;99.90
11152;DHT22;5630;49.342;10.802;2023-06-26T04:05:42;16.90;99.90
11152;DHT22;5630;49.342;10.802;2023-06-26T04:08:08;16.90;99.90
11152;DHT22;5630;49.342;10.802;2023-06-26T04:10:34;16.90;99.90
11152;DHT22;5630;49.342;10.802;2023-06-26T04:13:01;16.90;99.90
11152;DHT22;5630;49.342;10.802;2023-06-26T04:15:27;16.90;99.90
11152;DHT22;5630;49.342;10.802;2023-06-26T04:17:52;16.90;99.90
11152;DHT22;5630;49.342;10.802;2023-06-26T04:20:18;16.90;99.90
11152;DHT22;5630;49.342;10.802;2023-06-26T04:22:43;17.00;99.90
11152;DHT22;5630;49.342;10.802;2023-06-26T04:25:09;16.90;99.90
11152;DHT22;5630;49.342;10.802;2023-06-26T04:27:37;17.00;99.90
11152;DHT22;5630;49.342;10.802;2023-06-26T04:30:03;17.00;99.90
11152;DHT22;5630;49.342;10.802;2023-06-26T04:32:28;17.00;99.90
11152;DHT22;5630;49.342;10.802;2023-06-26T04:34:54;17.10;99.90
11152;DHT22;5630;49.342;10.802;2023-06-26T04:37:19;17.10;99.90
11152;DHT22;5630;49.342;10.802;2023-06-26T04:39:45;17.20;99.90
11152;DHT22;5630;49.342;10.802;2023-06-26T04:42:11;17.20;99.90
11152;DHT22;5630;49.342;10.802;2023-06-26T04:44:37;17.20;99.90
11152;DHT22;5630;49.342;10.802;2023-06-26T04:47:03;17.30;99.90
11152;DHT22;5630;49.342;10.802;2023-06-26T04:49:29;17.30;99.90
11152;DHT22;5630;49.342;10.802;2023-06-26T04:51:56;17.30;99.90
11152;DHT22;5630;49.342;10.802;2023-06-26T04:54:22;17.40;99.90
11152;DHT22;5630;49.342;10.802;2023-06-26T04:56:48;17.40;99.90
11152;DHT22;5630;49.342;10.802;2023-06-26T04:59:14;17.50;99.90
11152;DHT22;5630;49.342;10.802;2023-06-26T05:01:40;17.50;99.90
11152;DHT22;5630;49.342;10.802;2023-06-26T05:04:06;17.70;99.90
11152;DHT22;5630;49.342;10.802;2023-06-26T05:06:32;17.70;99.90
11152;DHT22;5630;49.342;10.802;2023-06-26T05:08:58;17.90;99.90
11152;DHT22;5630;49.342;10.802;2023-06-26T05:11:24;18.10;99.90
11152;DHT22;5630;49.342;10.802;2023-06-26T05:13:50;18.20;99.90
11152;DHT22;5630;49.342;10.802;2023-06-26T05:16:16;18.30;99.90
11152;DHT22;5630;49.342;10.802;2023-06-26T05:18:41;18.40;99.90
11152;DHT22;5630;49.342;10.802;2023-06-26T05:21:07;18.50;99.90
11152;DHT22;5630;49.342;10.802;2023-06-26T05:23:34;18.60;99.90
11152;DHT22;5630;49.342;10.802;2023-06-26T05:26:00;18.60;99.90
11152;DHT22;5630;49.342;10.802;2023-06-26T05:28:27;18.70;99.90
11152;DHT22;5630;49.342;10.802;2023-06-26T05:30:54;18.80;99.90
11152;DHT22;5630;49.342;10.802;2023-06-26T05:33:23;18.90;99.90
11152;DHT22;5630;49.342;10.802;2023-06-26T05:35:49;18.90;99.90
11152;DHT22;5630;49.342;10.802;2023-06-26T05:38:17;19.00;99.90
11152;DHT22;5630;49.342;10.802;2023-06-26T05:40:42;19.10;99.90
11152;DHT22;5630;49.342;10.802;2023-06-26T05:43:08;19.20;99.90
11152;DHT22;5630;49.342;10.802;2023-06-26T05:45:34;19.30;99.90
11152;DHT22;5630;49.342;10.802;2023-06-26T05:48:00;19.40;99.90
11152;DHT22;5630;49.342;10.802;2023-06-26T05:50:26;19.50;99.90
11152;DHT22;5630;49.342;10.802;2023-06-26T05:52:52;19.60;99.90
11152;DHT22;5630;49.342;10.802;2023-06-26T05:55:18;19.70;99.90
11152;DHT22;5630;49.342;10.802;2023-06-26T05:57:45;19.70;99.90
11152;DHT22;5630;49.342;10.802;2023-06-26T06:00:12;19.90;99.90
11152;DHT22;5630;49.342;10.802;2023-06-26T06:02:38;20.00;99.90
11152;DHT22;5630;49.342;10.802;2023-06-26T06:05:04;20.10;99.90
11152;DHT22;5630;49.342;10.802;2023-06-26T06:07:34;20.20;99.90
11152;DHT22;5630;49.342;10.802;2023-06-26T06:10:01;20.20;99.90
11152;DHT22;5630;49.342;10.802;2023-06-26T06:12:28;20.30;99.90
11152;DHT22;5630;49.342;10.802;2023-06-26T06:14:54;20.40;99.90
11152;DHT22;5630;49.342;10.802;2023-06-26T06:17:22;20.50;99.90
11152;DHT22;5630;49.342;10.802;2023-06-26T06:19:48;20.60;99.90
11152;DHT22;5630;49.342;10.802;2023-06-26T06:22:14;20.70;99.90
11152;DHT22;5630;49.342;10.802;2023-06-26T06:24:41;20.80;99.90
11152;DHT22;5630;49.342;10.802;2023-06-26T06:27:07;21.00;99.90
11152;DHT22;5630;49.342;10.802;2023-06-26T06:29:32;21.10;99.90
11152;DHT22;5630;49.342;10.802;2023-06-26T06:31:58;21.30;99.90
11152;DHT22;5630;49.342;10.802;2023-06-26T06:34:24;21.40;99.90
11152;DHT22;5630;49.342;10.802;2023-06-26T06:36:49;21.60;99.90
11152;DHT22;5630;49.342;10.802;2023-06-26T06:39:15;21.80;99.90
11152;DHT22;5630;49.342;10.802;2023-06-26T06:41:41;22.00;99.90
11152;DHT22;5630;49.342;10.802;2023-06-26T06:44:06;22.20;99.90
11152;DHT22;5630;49.342;10.802;2023-06-26T06:46:32;22.30;99.90
11152;DHT22;5630;49.342;10.802;2023-06-26T06:48:58;22.50;99.90
11152;DHT22;5630;49.342;10.802;2023-06-26T06:51:23;22.70;99.90
11152;DHT22;5630;49.342;10.802;2023-06-26T06:53:49;22.80;99.90
11152;DHT22;5630;49.342;10.802;2023-06-26T06:56:14;23.00;99.90
11152;DHT22;5630;49.342;10.802;2023-06-26T06:58:40;23.20;99.90
11152;DHT22;5630;49.342;10.802;2023-06-26T07:01:08;23.30;99.90
11152;DHT22;5630;49.342;10.802;2023-06-26T07:03:34;23.50;99.90
11152;DHT22;5630;49.342;10.802;2023-06-26T07:06:00;23.70;99.90
11152;DHT22;5630;49.342;10.802;2023-06-26T07:08:25;23.90;99.90
11152;DHT22;5630;49.342;10.802;2023-06-26T07:10:51;24.10;99.90
11152;DHT22;5630;49.342;10.802;2023-06-26T07:13:17;24.30;99.90
11152;DHT22;5630;49.342;10.802;2023-06-26T07:15:42;24.50;99.90
11152;DHT22;5630;49.342;10.802;2023-06-26T07:18:08;24.60;99.90
11152;DHT22;5630;49.342;10.802;2023-06-26T07:20:33;24.80;99.90
11152;DHT22;5630;49.342;10.802;2023-06-26T07:22:59;24.90;99.90
11152;DHT22;5630;49.342;10.802;2023-06-26T07:25:25;25.20;99.90
11152;DHT22;5630;49.342;10.802;2023-06-26T07:27:50;25.30;99.90
11152;DHT22;5630;49.342;10.802;2023-06-26T07:30:16;25.60;99.90
11152;DHT22;5630;49.342;10.802;2023-06-26T07:32:41;25.80;99.90
11152;DHT22;5630;49.342;10.802;2023-06-26T07:35:07;26.00;99.90
11152;DHT22;5630;49.342;10.802;2023-06-26T07:37:33;26.20;99.90
11152;DHT22;5630;49.342;10.802;2023-06-26T07:39:59;26.40;99.90
11152;DHT22;5630;49.342;10.802;2023-06-26T07:42:24;26.50;99.90
11152;DHT22;5630;49.342;10.802;2023-06-26T07:44:50;26.40;99.90
11152;DHT22;5630;49.342;10.802;2023-06-26T07:47:16;26.60;99.90
11152;DHT22;5630;49.342;10.802;2023-06-26T07:49:41;26.70;99.90
11152;DHT22;5630;49.342;10.802;2023-06-26T07:52:07;26.90;99.90
11152;DHT22;5630;49.342;10.802;2023-06-26T07:54:36;27.10;99.90
11152;DHT22;5630;49.342;10.802;2023-06-26T07:57:03;27.20;99.90
11152;DHT22;5630;49.342;10.802;2023-06-26T07:59:32;27.40;99.80
11152;DHT22;5630;49.342;10.802;2023-06-26T08:01:58;27.70;99.30
11152;DHT22;5630;49.342;10.802;2023-06-26T08:04:26;27.90;99.70
11152;DHT22;5630;49.342;10.802;2023-06-26T08:06:56;28.00;98.60
11152;DHT22;5630;49.342;10.802;2023-06-26T08:09:24;28.20;98.70
11152;DHT22;5630;49.342;10.802;2023-06-26T08:11:50;28.30;98.50
11152;DHT22;5630;49.342;10.802;2023-06-26T08:14:16;28.40;98.40
11152;DHT22;5630;49.342;10.802;2023-06-26T08:16:42;28.50;97.70
11152;DHT22;5630;49.342;10.802;2023-06-26T08:19:09;28.60;97.20
11152;DHT22;5630;49.342;10.802;2023-06-26T08:21:35;28.60;97.40
11152;DHT22;5630;49.342;10.802;2023-06-26T08:24:01;28.70;96.60
11152;DHT22;5630;49.342;10.802;2023-06-26T08:26:27;28.80;96.10
11152;DHT22;5630;49.342;10.802;2023-06-26T08:28:53;28.90;96.40
11152;DHT22;5630;49.342;10.802;2023-06-26T08:31:19;29.10;96.50
11152;DHT22;5630;49.342;10.802;2023-06-26T08:33:45;29.30;96.50
11152;DHT22;5630;49.342;10.802;2023-06-26T08:36:10;29.30;95.60
11152;DHT22;5630;49.342;10.802;2023-06-26T08:38:36;29.50;95.80
11152;DHT22;5630;49.342;10.802;2023-06-26T08:41:01;29.70;96.10
11152;DHT22;5630;49.342;10.802;2023-06-26T08:43:27;29.80;94.90
11152;DHT22;5630;49.342;10.802;2023-06-26T08:45:54;29.70;94.90
11152;DHT22;5630;49.342;10.802;2023-06-26T08:48:21;30.00;95.50
11152;DHT22;5630;49.342;10.802;2023-06-26T08:50:52;30.00;94.70
11152;DHT22;5630;49.342;10.802;2023-06-26T08:53:43;30.30;94.10
11152;DHT22;5630;49.342;10.802;2023-06-26T08:56:15;30.30;93.40
11152;DHT22;5630;49.342;10.802;2023-06-26T08:58:42;29.90;92.60
11152;DHT22;5630;49.342;10.802;2023-06-26T09:01:08;29.70;92.50
11152;DHT22;5630;49.342;10.802;2023-06-26T09:03:35;30.00;93.40
11152;DHT22;5630;49.342;10.802;2023-06-26T09:06:02;30.30;93.10
11152;DHT22;5630;49.342;10.802;2023-06-26T09:08:28;30.60;93.10
11152;DHT22;5630;49.342;10.802;2023-06-26T09:10:54;30.70;92.80
11152;DHT22;5630;49.342;10.802;2023-06-26T09:13:19;30.90;93.30
11152;DHT22;5630;49.342;10.802;2023-06-26T09:15:46;31.10;93.20
11152;DHT22;5630;49.342;10.802;2023-06-26T09:18:12;31.30;92.40
11152;DHT22;5630;49.342;10.802;2023-06-26T09:20:38;31.30;91.30
11152;DHT22;5630;49.342;10.802;2023-06-26T09:23:04;31.40;91.70
11152;DHT22;5630;49.342;10.802;2023-06-26T09:25:30;31.50;91.40
11152;DHT22;5630;49.342;10.802;2023-06-26T09:27:56;31.50;91.40
11152;DHT22;5630;49.342;10.802;2023-06-26T09:30:22;31.40;90.40
11152;DHT22;5630;49.342;10.802;2023-06-26T09:32:48;31.50;90.50
11152;DHT22;5630;49.342;10.802;2023-06-26T09:35:16;31.60;90.80
11152;DHT22;5630;49.342;10.802;2023-06-26T09:37:42;31.60;89.40
11152;DHT22;5630;49.342;10.802;2023-06-26T09:40:08;31.70;90.10
11152;DHT22;5630;49.342;10.802;2023-06-26T09:42:34;32.00;89.20
11152;DHT22;5630;49.342;10.802;2023-06-26T09:45:00;32.20;88.60
11152;DHT22;5630;49.342;10.802;2023-06-26T09:47:26;32.10;88.20
11152;DHT22;5630;49.342;10.802;2023-06-26T09:49:51;32.30;88.80
11152;DHT22;5630;49.342;10.802;2023-06-26T09:52:20;32.40;86.30
11152;DHT22;5630;49.342;10.802;2023-06-26T09:54:46;32.50;87.50
11152;DHT22;5630;49.342;10.802;2023-06-26T09:57:13;32.70;86.10
11152;DHT22;5630;49.342;10.802;2023-06-26T09:59:40;33.00;85.20
11152;DHT22;5630;49.342;10.802;2023-06-26T10:02:06;32.70;82.90
11152;DHT22;5630;49.342;10.802;2023-06-26T10:04:32;32.70;81.90
11152;DHT22;5630;49.342;10.802;2023-06-26T10:07:01;32.70;84.00
11152;DHT22;5630;49.342;10.802;2023-06-26T10:09:27;32.40;82.10
11152;DHT22;5630;49.342;10.802;2023-06-26T10:12:03;32.30;82.10
11152;DHT22;5630;49.342;10.802;2023-06-26T10:14:37;32.50;82.20
11152;DHT22;5630;49.342;10.802;2023-06-26T10:17:06;32.50;82.50
11152;DHT22;5630;49.342;10.802;2023-06-26T10:19:33;32.80;82.50
11152;DHT22;5630;49.342;10.802;2023-06-26T10:22:02;33.00;82.70
11152;DHT22;5630;49.342;10.802;2023-06-26T10:24:29;33.00;81.90
11152;DHT22;5630;49.342;10.802;2023-06-26T10:27:02;33.10;82.00
11152;DHT22;5630;49.342;10.802;2023-06-26T10:29:30;33.10;78.10
11152;DHT22;5630;49.342;10.802;2023-06-26T10:31:58;33.10;80.60
11152;DHT22;5630;49.342;10.802;2023-06-26T10:34:25;33.20;79.30
11152;DHT22;5630;49.342;10.802;2023-06-26T10:37:03;33.20;78.50
11152;DHT22;5630;49.342;10.802;2023-06-26T10:39:49;33.20;78.90
11152;DHT22;5630;49.342;10.802;2023-06-26T10:42:16;33.30;79.80
11152;DHT22;5630;49.342;10.802;2023-06-26T10:44:46;33.20;77.70
11152;DHT22;5630;49.342;10.802;2023-06-26T10:47:29;32.90;77.10
11152;DHT22;5630;49.342;10.802;2023-06-26T10:49:56;32.90;78.20
11152;DHT22;5630;49.342;10.802;2023-06-26T10:52:21;33.10;79.50
11152;DHT22;5630;49.342;10.802;2023-06-26T10:54:47;33.40;79.70
11152;DHT22;5630;49.342;10.802;2023-06-26T10:57:23;33.40;76.30
11152;DHT22;5630;49.342;10.802;2023-06-26T11:00:10;33.20;76.40
11152;DHT22;5630;49.342;10.802;2023-06-26T11:02:49;33.30;77.40
11152;DHT22;5630;49.342;10.802;2023-06-26T11:05:26;33.40;76.40
11152;DHT22;5630;49.342;10.802;2023-06-26T11:08:08;33.60;79.60
11152;DHT22;5630;49.342;10.802;2023-06-26T11:10:51;33.90;77.50
11152;DHT22;5630;49.342;10.802;2023-06-26T11:13:18;34.10;75.40
11152;DHT22;5630;49.342;10.802;2023-06-26T11:15:49;33.80;76.00
11152;DHT22;5630;49.342;10.802;2023-06-26T11:18:14;33.80;75.80
11152;DHT22;5630;49.342;10.802;2023-06-26T11:20:41;33.50;74.40
11152;DHT22;5630;49.342;10.802;2023-06-26T11:23:08;33.10;74.50
11152;DHT22;5630;49.342;10.802;2023-06-26T11:25:37;32.80;76.40
11152;DHT22;5630;49.342;10.802;2023-06-26T11:28:04;32.90;75.50
11152;DHT22;5630;49.342;10.802;2023-06-26T11:30:30;32.60;75.10
11152;DHT22;5630;49.342;10.802;2023-06-26T11:33:07;32.90;76.70
11152;DHT22;5630;49.342;10.802;2023-06-26T11:35:33;33.20;77.10
11152;DHT22;5630;49.342;10.802;2023-06-26T11:38:01;33.30;76.70
11152;DHT22;5630;49.342;10.802;2023-06-26T11:40:32;33.80;77.10
11152;DHT22;5630;49.342;10.802;2023-06-26T11:42:59;34.00;76.40
11152;DHT22;5630;49.342;10.802;2023-06-26T11:45:28;34.20;75.70
11152;DHT22;5630;49.342;10.802;2023-06-26T11:47:58;34.10;73.90
11152;DHT22;5630;49.342;10.802;2023-06-26T11:50:25;33.80;72.90
11152;DHT22;5630;49.342;10.802;2023-06-26T11:52:58;33.90;76.00
11152;DHT22;5630;49.342;10.802;2023-06-26T11:55:25;33.80;75.00
11152;DHT22;5630;49.342;10.802;2023-06-26T11:57:53;34.00;74.80
11152;DHT22;5630;49.342;10.802;2023-06-26T12:00:19;33.60;73.30
11152;DHT22;5630;49.342;10.802;2023-06-26T12:02:45;33.60;76.10
11152;DHT22;5630;49.342;10.802;2023-06-26T12:05:15;33.80;75.60
11152;DHT22;5630;49.342;10.802;2023-06-26T12:07:48;33.90;73.70
11152;DHT22;5630;49.342;10.802;2023-06-26T12:10:14;33.80;73.20
11152;DHT22;5630;49.342;10.802;2023-06-26T12:12:41;34.20;76.10
11152;DHT22;5630;49.342;10.802;2023-06-26T12:15:07;34.30;73.20
11152;DHT22;5630;49.342;10.802;2023-06-26T12:17:37;34.30;72.60
11152;DHT22;5630;49.342;10.802;2023-06-26T12:20:05;34.00;73.70
11152;DHT22;5630;49.342;10.802;2023-06-26T12:22:34;34.00;73.90
11152;DHT22;5630;49.342;10.802;2023-06-26T12:25:01;33.60;74.20
11152;DHT22;5630;49.342;10.802;2023-06-26T12:27:27;33.10;76.10
11152;DHT22;5630;49.342;10.802;2023-06-26T12:29:54;33.20;76.80
11152;DHT22;5630;49.342;10.802;2023-06-26T12:32:21;33.50;75.70
11152;DHT22;5630;49.342;10.802;2023-06-26T12:34:49;33.30;76.40
11152;DHT22;5630;49.342;10.802;2023-06-26T12:37:16;33.20;77.90
11152;DHT22;5630;49.342;10.802;2023-06-26T12:39:52;33.40;78.20
11152;DHT22;5630;49.342;10.802;2023-06-26T12:42:22;33.60;78.70
11152;DHT22;5630;49.342;10.802;2023-06-26T12:44:49;33.60;76.30
11152;DHT22;5630;49.342;10.802;2023-06-26T12:47:16;33.60;78.00
11152;DHT22;5630;49.342;10.802;2023-06-26T12:49:43;33.70;77.60
11152;DHT22;5630;49.342;10.802;2023-06-26T12:52:11;33.60;77.80
11152;DHT22;5630;49.342;10.802;2023-06-26T12:54:39;33.80;77.30
11152;DHT22;5630;49.342;10.802;2023-06-26T12:57:06;33.70;77.10
11152;DHT22;5630;49.342;10.802;2023-06-26T12:59:33;33.80;77.80
11152;DHT22;5630;49.342;10.802;2023-06-26T13:02:00;33.60;76.90
11152;DHT22;5630;49.342;10.802;2023-06-26T13:04:26;33.50;76.90
11152;DHT22;5630;49.342;10.802;2023-06-26T13:06:52;33.30;79.30
11152;DHT22;5630;49.342;10.802;2023-06-26T13:09:21;33.40;77.60
11152;DHT22;5630;49.342;10.802;2023-06-26T13:11:46;33.50;76.90
11152;DHT22;5630;49.342;10.802;2023-06-26T13:14:12;33.40;76.60
11152;DHT22;5630;49.342;10.802;2023-06-26T13:16:38;33.30;77.60
11152;DHT22;5630;49.342;10.802;2023-06-26T13:19:04;33.20;78.70
11152;DHT22;5630;49.342;10.802;2023-06-26T13:21:29;33.20;79.30
11152;DHT22;5630;49.342;10.802;2023-06-26T13:23:56;32.90;79.70
11152;DHT22;5630;49.342;10.802;2023-06-26T13:26:22;32.30;80.40
11152;DHT22;5630;49.342;10.802;2023-06-26T13:28:49;32.00;80.90
11152;DHT22;5630;49.342;10.802;2023-06-26T13:31:15;32.10;84.20
11152;DHT22;5630;49.342;10.802;2023-06-26T13:33:41;32.30;82.90
11152;DHT22;5630;49.342;10.802;2023-06-26T13:36:06;32.40;83.00
11152;DHT22;5630;49.342;10.802;2023-06-26T13:38:35;32.30;84.60
11152;DHT22;5630;49.342;10.802;2023-06-26T13:41:01;32.20;84.60
11152;DHT22;5630;49.342;10.802;2023-06-26T13:43:27;32.60;82.80
11152;DHT22;5630;49.342;10.802;2023-06-26T13:45:53;32.30;81.40
11152;DHT22;5630;49.342;10.802;2023-06-26T13:48:19;32.30;82.30
11152;DHT22;5630;49.342;10.802;2023-06-26T13:50:46;32.00;80.30
11152;DHT22;5630;49.342;10.802;2023-06-26T13:53:12;32.00;81.70
11152;DHT22;5630;49.342;10.802;2023-06-26T13:55:38;32.10;83.00
11152;DHT22;5630;49.342;10.802;2023-06-26T13:58:07;32.20;81.80
11152;DHT22;5630;49.342;10.802;2023-06-26T14:00:33;32.30;83.70
11152;DHT22;5630;49.342;10.802;2023-06-26T14:03:05;32.40;82.00
11152;DHT22;5630;49.342;10.802;2023-06-26T14:05:36;32.40;82.00
11152;DHT22;5630;49.342;10.802;2023-06-26T14:08:03;32.30;81.20
11152;DHT22;5630;49.342;10.802;2023-06-26T14:10:30;32.20;81.50
11152;DHT22;5630;49.342;10.802;2023-06-26T14:12:56;32.10;82.00
11152;DHT22;5630;49.342;10.802;2023-06-26T14:15:22;31.90;83.40
11152;DHT22;5630;49.342;10.802;2023-06-26T14:17:48;31.70;83.30
11152;DHT22;5630;49.342;10.802;2023-06-26T14:20:15;31.40;84.30
11152;DHT22;5630;49.342;10.802;2023-06-26T14:22:43;31.40;86.40
11152;DHT22;5630;49.342;10.802;2023-06-26T14:25:12;31.60;84.10
11152;DHT22;5630;49.342;10.802;2023-06-26T14:27:38;31.60;85.80
11152;DHT22;5630;49.342;10.802;2023-06-26T14:30:05;31.60;85.80
11152;DHT22;5630;49.342;10.802;2023-06-26T14:32:31;31.30;86.70
11152;DHT22;5630;49.342;10.802;2023-06-26T14:34:57;31.10;87.80
11152;DHT22;5630;49.342;10.802;2023-06-26T14:37:23;31.10;87.60
11152;DHT22;5630;49.342;10.802;2023-06-26T14:39:49;31.30;88.10
11152;DHT22;5630;49.342;10.802;2023-06-26T14:42:15;31.40;88.50
11152;DHT22;5630;49.342;10.802;2023-06-26T14:44:40;31.60;89.50
11152;DHT22;5630;49.342;10.802;2023-06-26T14:47:06;31.40;88.50
11152;DHT22;5630;49.342;10.802;2023-06-26T14:49:32;31.60;88.00
11152;DHT22;5630;49.342;10.802;2023-06-26T14:51:58;31.50;88.80
11152;DHT22;5630;49.342;10.802;2023-06-26T14:54:24;31.60;89.80
11152;DHT22;5630;49.342;10.802;2023-06-26T14:56:50;31.50;90.00
11152;DHT22;5630;49.342;10.802;2023-06-26T14:59:15;31.30;90.10
11152;DHT22;5630;49.342;10.802;2023-06-26T15:01:41;31.10;90.80
11152;DHT22;5630;49.342;10.802;2023-06-26T15:04:06;31.00;90.70
11152;DHT22;5630;49.342;10.802;2023-06-26T15:06:32;31.10;90.80
11152;DHT22;5630;49.342;10.802;2023-06-26T15:08:58;31.10;90.70
11152;DHT22;5630;49.342;10.802;2023-06-26T15:11:24;31.00;89.80
11152;DHT22;5630;49.342;10.802;2023-06-26T15:13:50;30.80;90.60
11152;DHT22;5630;49.342;10.802;2023-06-26T15:16:15;30.70;90.60
11152;DHT22;5630;49.342;10.802;2023-06-26T15:18:41;30.60;91.00
11152;DHT22;5630;49.342;10.802;2023-06-26T15:21:07;30.60;91.50
11152;DHT22;5630;49.342;10.802;2023-06-26T15:23:34;30.50;91.70
11152;DHT22;5630;49.342;10.802;2023-06-26T15:25:59;30.50;91.60
11152;DHT22;5630;49.342;10.802;2023-06-26T15:28:25;30.50;91.30
11152;DHT22;5630;49.342;10.802;2023-06-26T15:30:51;30.40;91.50
11152;DHT22;5630;49.342;10.802;2023-06-26T15:33:16;30.50;91.50
11152;DHT22;5630;49.342;10.802;2023-06-26T15:35:42;30.30;91.80
11152;DHT22;5630;49.342;10.802;2023-06-26T15:38:08;30.20;92.40
11152;DHT22;5630;49.342;10.802;2023-06-26T15:40:33;30.20;91.90